Tiempo atmosférico en la estación meteorológica de Cervera De Pisuerga, Palencia (1140 m.)



Fecha
DESCASC
Temp. máxima en grados centígrados (hora)
DESCASC
Temp. mínima en grados centígrados (hora)
DESCASC
Temp. media en grados centígrados
DESCASC
Racha de viento máxima en m/sg (hora)
DESCASC
Velocidad máxima media en intervalos de 10 minutos(hora)
DESCASC
Precipitaciones diarias en mm
DESCASC
Precipitaciones de 00:00 a 06:00 en mm
DESCASC
Precipitaciones de 06:00 a 12:00 en mm
DESCASC
Precipitaciones de 12:00 a 18:00 en mm
DESCASC
Precipitaciones de 18:00 a 24:00 en mm
DESCASC
17-10-2019 16.5 (15:10) 8.5 (23:40) 12.5 -- (--) -- (--) 8.4 7.8 0.4 0 0.2
16-10-2019 11.5 (15:20) 6.9 (09:00) 9.2 -- (--) -- (--) 4.6 0 0.8 0.2 3.6
15-10-2019 14.2 (14:40) 0.2 (07:00) 7.2 -- (--) -- (--) 0.6 0 0 0 0.6
14-10-2019 14.7 (01:40) 3.1 (23:59) 8.9 21.39 (10:10) 11.39 (10:10) 17 1 5.6 8.6 1.8
13-10-2019 18.3 (00:00) 12.2 (00:00) 15.2 20.28 (00:20) 11.11 (00:30) 0 0 0 0 0
12-10-2019 23.7 (16:30) 15 (00:00) 19.4 20.56 (17:50) 10.28 (21:50) 0 0 0 0 0
10-10-2019 21.2 (17:10) 2.6 (00:00) 11.9 6.39 (23:50) 3.89 (00:10) 0 0 0 0 0
09-10-2019 19.8 (15:40) 5.9 (00:00) 12.8 -- (--) -- (--) 0 0 0 0 0
08-10-2019 27.2 (17:10) 9 (00:00) 18.1 10.83 (14:00) 4.72 (15:30) 0 0 0 0 0
07-10-2019 24.8 (17:00) 5.2 (00:00) 15 7.22 (15:40) 4.17 (07:40) 0.2 0 0.2 0 0
06-10-2019 21.5 (16:20) 7 (00:00) 14.3 -- (--) -- (--) 0 0 0 0 0
05-10-2019 25.8 (17:00) 7.3 (09:30) 16.5 -- (--) -- (--) 0 0 0 0 0
04-10-2019 24.5 (17:00) 7.8 (00:00) 16.2 9.17 (15:30) 5 (16:10) 0 0 0 0 0
03-10-2019 24.5 (16:30) 5.1 (00:00) 14.8 6.39 (16:40) 3.89 (15:10) 0 0 0 0 0
02-10-2019 19.6 (17:00) 4.1 (00:00) 11.9 7.78 (14:40) 3.89 (04:00) 0 0 0 0 0
01-10-2019 -- (--) -- (--) -- -- (--) -- (--) -- -- -- 0 0
30-09-2019 -- (--) -- (--) -- -- (--) -- (--) -- 0 -- -- --
29-09-2019 25.4 (16:00) 10.2 (00:00) 17.8 -- (--) -- (--) 0 0 0 0 0
28-09-2019 24.5 (16:50) 10.1 (00:00) 17.3 9.72 (16:00) 4.72 (16:40) 0 0 0 0 0
27-09-2019 -- (--) -- (--) -- -- (--) -- (--) -- -- -- 0 0
26-09-2019 -- (--) -- (--) -- -- (--) -- (--) -- -- -- 0 0
25-09-2019 -- (--) -- (--) -- -- (--) -- (--) -- -- -- -- --
24-09-2019 -- (--) -- (--) -- -- (--) -- (--) -- -- -- -- --
23-09-2019 -- (--) -- (--) -- -- (--) -- (--) -- -- -- 0 0
22-09-2019 -- (--) -- (--) -- -- (--) -- (--) -- -- -- -- --
21-09-2019 -- (--) -- (--) -- -- (--) -- (--) -- 0.2 0 -- --
20-09-2019 25.2 (16:00) 10.5 (00:00) 17.9 11.67 (17:10) 5.28 (14:10) 3.2 0 0 0.8 2.4

Gráficas

Temp. máximas Temp. mínimas Temp. medias Precipitaciones Rachas de viento máximas Velocidades máximas media en intervalos de 10 minutos

Datos horarios

Fecha y hora oficial Temperatura (ºC) Velocidad del viento (km/h) Dirección del viento Racha (km/h) Dirección de racha Precipitación (mm) Presión (hPa) Tendencia (hPa) Humedad (%)
2019-10-19 23:00:00 6.3 8 Noroeste 19 Oeste 2.6 875.1 -0.2 95
2019-10-19 22:00:00 6.6 8 Oeste 21 Oeste 0.6 875.1 0.2 94
2019-10-19 21:00:00 6.6 8 Norte 18 Oeste 0.2 875.5 0.3 92
2019-10-19 20:00:00 7.6 10 Norte 36 Oeste 3.2 875.3 -0.6 92
2019-10-19 19:00:00 9 13 Sudeste 41 Sur 4 874.9 -1.4 95
2019-10-19 18:00:00 8.9 15 Sur -- -- 3.4 875.2 -1.5 94
2019-10-19 17:00:00 9 -- -- -- -- 4.2 875.9 -1.9 93
2019-10-19 16:00:00 8.6 -- -- -- -- 1.6 876.3 -2 91
2019-10-19 15:00:00 8.9 -- -- -- -- 1.8 876.7 -1.9 92
2019-10-19 14:00:00 8.4 -- -- -- -- 5.6 877.8 -1.3 93
2019-10-19 13:00:00 8.6 -- -- -- -- 1.8 878.3 -1 93
2019-10-19 12:00:00 8.9 15 Sudoeste 37 Sur 1.8 878.6 -0.6 94
2019-10-19 11:00:00 8.3 14 Sudoeste 32 Sudoeste 2.4 879.1 -0.6 94
2019-10-19 10:00:00 8 13 Sudoeste 28 Sur 0.2 879.3 -0.7 94
2019-10-19 09:00:00 8 15 Sur 29 Sur 0.6 879.2 -1.1 94
2019-10-19 08:00:00 7.9 14 Sudoeste 40 Sur 0.2 879.7 -0.9 94
2019-10-19 07:00:00 7.8 13 Sudoeste 41 Sur 0.4 880 -1.2 93
2019-10-19 06:00:00 7.7 12 Sudoeste 42 Sur 0.4 880.3 -1.2 90
2019-10-19 05:00:00 7.9 15 Sudoeste 39 Sur 1.4 880.6 -0.8 91
2019-10-19 04:00:00 8.3 12 Sudoeste -- -- 0.8 881.2 -1.3 89
2019-10-19 03:00:00 8.9 -- -- -- -- 0 881.5 -1.4 83
2019-10-19 02:00:00 8.8 -- -- -- -- 0 881.4 -1.9 81
2019-10-19 01:00:00 9.2 13 Sudoeste -- -- 0 882.5 -1 82
2019-10-19 00:00:00 9.4 14 Sudoeste -- -- 0 882.9 -1 82
2019-10-18 23:00:00 9.4 5 Norte -- -- 0 883.3 -0.6 78
2019-10-18 22:00:00 9.8 7 Sudeste 23 Sur 0 883.5 -0.7 73
2019-10-18 21:00:00 9.8 9 Sudoeste 23 Sur 0 883.9 -0.9 67
2019-10-18 20:00:00 9.9 12 Sudoeste 24 Sudoeste 0 883.9 -1.2 67
2019-10-18 19:00:00 10.5 8 Oeste 26 Oeste 0 884.2 -0.8 65
2019-10-18 18:00:00 11.1 15 Sudoeste 30 Sur 0 884.8 -0.9 62
2019-10-18 17:00:00 12.4 15 Sudoeste -- -- 0 885.1 -1 54
2019-10-18 16:00:00 14.8 17 Sudoeste -- -- 0 885 -1.5 53
2019-10-18 15:00:00 14.7 18 Sur 28 Sur 0 885.7 -1.2 55
2019-10-18 14:00:00 14 -- -- -- -- 0 886.1 -0.8 55
2019-10-18 13:00:00 13.6 14 Sudoeste 27 Sur 0 886.5 -0.1 58
2019-10-18 12:00:00 12 10 Sudeste 20 Sur 0 886.9 0.5 75
2019-10-18 11:00:00 9.4 11 Sur 18 Sur 0 886.9 0.8 90
2019-10-18 10:00:00 8.6 10 Sur 17 Oeste 0 886.6 0.8 93
2019-10-18 09:00:00 8.2 12 Oeste 18 Oeste 0 886.4 0.8 93
2019-10-18 08:00:00 7.5 4 Nordeste 15 Este 0 886.1 0.6 92
2019-10-18 07:00:00 8.2 6 Este 14 Sur 0 885.8 0.2 90
2019-10-18 06:00:00 8.7 3 Oeste 19 Oeste 0 885.6 -0.1 88
2019-10-18 05:00:00 8.9 3 Norte 17 Oeste 0 885.5 -0.3 90
2019-10-18 04:00:00 8.2 4 Este 17 Sur 0 885.6 -0.5 92
2019-10-18 03:00:00 9.6 4 Sur 24 Sur 0 885.7 -0.9 86
2019-10-18 02:00:00 8.7 6 Nordeste 21 Oeste 0 885.8 -0.8 87
2019-10-18 01:00:00 8.2 4 Nordeste 22 Sur 0 886.1 -0.3 86
2019-10-18 00:00:00 9.1 5 Sudoeste 25 Oeste 0 886.6 0.1 82
2019-10-17 23:00:00 9 8 Nordeste 23 Sudoeste 0 886.6 0.3 83
2019-10-17 22:00:00 10.7 4 Sudoeste 25 Sudoeste 0 886.4 0.3 72
2019-10-17 21:00:00 12 4 Noroeste 23 Sudoeste 0 886.5 0.6 74
2019-10-17 20:00:00 13.3 7 Sudoeste 28 Sudoeste 0.2 886.3 0.2 69
2019-10-17 19:00:00 14.3 12 Sudoeste 32 Sur 0 886.1 -0.1 61
2019-10-17 18:00:00 15.2 6 Sudoeste 33 Sur 0 885.9 -0.6 62
2019-10-17 17:00:00 14.5 6 Sudoeste -- -- 0 886.1 -0.8 63
2019-10-17 16:00:00 14.8 9 Sudoeste 30 Sudoeste 0 886.2 -0.8 62
2019-10-17 15:00:00 15.9 15 Sudoeste 34 Sur 0 886.5 -0.2 65
2019-10-17 14:00:00 13.7 17 Sudoeste -- -- 0 886.9 0.3 71
2019-10-17 13:00:00 13.4 15 Sudoeste -- -- 0 887 0.7 76
2019-10-17 12:00:00 11.6 -- -- -- -- 0 886.7 1 88
2019-10-17 11:00:00 10.7 7 Sudeste 22 Sur 0 886.6 1.2 95
2019-10-17 10:00:00 9.9 8 Sudeste 23 Sur 0.2 886.3 1 96
2019-10-17 09:00:00 9.4 9 Sudeste 17 Sur 0 885.7 0.3 95
2019-10-17 08:00:00 9.2 10 Este 20 Sur 0 885.4 -0.2 95
2019-10-17 07:00:00 9.3 6 Sudeste 22 Sur 0.2 885.3 -0.6 95
2019-10-17 06:00:00 9.2 10 Sur 25 Sur 0.4 885.4 -0.8 94
2019-10-17 05:00:00 9.4 12 Sudoeste 30 Sudoeste 0.8 885.6 -1 93
2019-10-17 04:00:00 9.6 -- -- -- -- 1.8 885.9 -1.1 93
2019-10-17 03:00:00 9.6 -- -- -- -- 2.8 886.2 -1 93
2019-10-17 02:00:00 9.6 -- -- -- -- 1.2 886.6 -0.5 93
2019-10-17 01:00:00 9.7 -- -- -- -- 0.8 887 0.1 93
2019-10-17 00:00:00 9.7 -- -- -- -- 1 887.2 0 92
2019-10-16 23:00:00 9.6 -- -- -- -- 0.6 887.1 0.1 92
2019-10-16 22:00:00 9.7 7 Oeste -- -- 1.2 886.9 -0.3 91
2019-10-16 21:00:00 9.7 -- -- -- -- 0 887.2 0.2 92
2019-10-16 20:00:00 9.5 13 Sudoeste 27 Sur 0.6 887 0 93
2019-10-16 19:00:00 9.4 8 Sudeste 23 Sur 0.2 887.2 -0.4 91
2019-10-16 18:00:00 9.4 8 Sudoeste 22 Sur 0 887 -0.7 90
2019-10-16 17:00:00 9.6 9 Sudeste 22 Sur 0.2 887 -1.1 89
2019-10-16 16:00:00 9.7 9 Oeste 40 Sur 0 887.6 -0.5 85
2019-10-16 15:00:00 11 10 Sudoeste 25 Sur 0 887.7 -0.3 87
2019-10-16 14:00:00 9.1 10 Sudoeste 37 Sudoeste 0 888.1 0 88
2019-10-16 13:00:00 8.8 12 Sudoeste 41 Sudoeste 0 888.1 0.4 93
2019-10-16 12:00:00 7.8 17 Sudoeste 38 Oeste 0 888 0.3 93
2019-10-16 11:00:00 7.4 -- -- -- -- 0.2 888.1 0.7 93
2019-10-16 10:00:00 7 -- -- -- -- 0.2 887.7 0.4 93
2019-10-16 09:00:00 7 8 Sudoeste 31 Oeste 0.2 887.7 0.5 92
2019-10-16 08:00:00 7.2 12 Sudoeste -- -- 0.2 887.4 -0.2 91
2019-10-16 07:00:00 7.1 -- -- -- -- 0 887.3 -0.8 92
2019-10-16 06:00:00 7.3 16 Sudoeste 39 Sudoeste 0 887.2 -1.1 90
2019-10-16 05:00:00 7.5 18 Sudoeste -- -- 0 887.6 -0.9 90
2019-10-16 04:00:00 7.6 14 Sudoeste 39 Sudoeste 0 888.1 -0.6 90
2019-10-16 03:00:00 7.6 13 Sudoeste 41 Oeste 0 888.3 -0.7 90
2019-10-16 02:00:00 7.7 17 Sudoeste 43 Oeste 0 888.5 -0.4 89
2019-10-16 01:00:00 7.7 17 Sudoeste 39 Sudoeste 0 888.7 -0.3 87
2019-10-16 00:00:00 7.6 11 Sudoeste 40 Oeste 0 889 0.2 85
2019-10-15 23:00:00 7.3 19 Sudoeste 48 Oeste 0.2 888.9 0.1 85
2019-10-15 22:00:00 7.2 16 Sudoeste -- -- 0 889 0.4 87
2019-10-15 21:00:00 7.4 16 Sudoeste 50 Sur 0.4 888.8 -0.1 88
2019-10-15 20:00:00 8.2 14 Sudoeste 40 Sur 0 888.8 0.3 82
2019-10-15 19:00:00 9.1 12 Sudoeste 39 Sudoeste 0 888.6 0.2 71
2019-10-15 18:00:00 9.3 15 Sudoeste 36 Sudoeste 0 888.9 0.6 69
2019-10-15 17:00:00 10 14 Sudoeste 37 Sudoeste 0 888.5 0.3 68
2019-10-15 16:00:00 12.6 13 Sudoeste 40 Sudoeste 0 888.4 0 54
2019-10-15 15:00:00 12 14 Sudoeste -- -- 0 888.3 -0.3 55
2019-10-15 14:00:00 13.2 14 Sudoeste -- -- 0 888.2 -0.4 54
2019-10-15 13:00:00 11.8 12 Sudoeste -- -- 0 888.4 0.2 62
2019-10-15 12:00:00 8.9 -- -- -- -- 0 888.6 1 63
2019-10-15 11:00:00 6.7 5 Sudoeste -- -- 0 888.6 1.3 70
2019-10-15 10:00:00 3.2 -- -- -- -- 0 888.2 1.4 88
2019-10-15 09:00:00 2.5 7 Oeste -- -- 0 887.6 1.2 85
2019-10-15 08:00:00 1.4 -- -- -- -- 0 887.3 1.3 86
2019-10-15 07:00:00 0.2 6 Nordeste -- -- 0 886.8 0.9 93
2019-10-15 06:00:00 1 5 Nordeste 23 Norte 0 886.4 0.8 89
2019-10-15 05:00:00 3.3 6 Oeste 27 Oeste 0 886 0.8 78
2019-10-15 04:00:00 3 7 Sudoeste 28 Oeste 0 885.9 1.2 82
2019-10-15 03:00:00 3.2 6 Oeste 25 Sudoeste 0 885.6 1.3 82
2019-10-15 02:00:00 3.5 5 Sudoeste 31 Oeste 0 885.2 1.6 84
2019-10-15 01:00:00 2.9 8 Sudoeste 19 Sudoeste 0 884.7 1.6 91
2019-10-15 00:00:00 3.1 4 Oeste 17 Oeste 0 884.3 1.6 88
2019-10-14 23:00:00 4.4 8 Sudoeste 26 Oeste 0.4 883.6 1.7 88
2019-10-14 22:00:00 4.7 7 Noroeste 24 Oeste 0 883.1 1.7 90
2019-10-14 21:00:00 5.4 12 Sudoeste 28 Sur 0 882.7 1.6 89
2019-10-14 20:00:00 5.8 9 Oeste -- -- 0 881.9 0.7 84
2019-10-14 19:00:00 7.3 13 Oeste 42 Sur 1.4 881.4 0.5 87
2019-10-14 18:00:00 7.8 18 Sudoeste 44 Sur 3.4 881.1 0.1 91
2019-10-14 17:00:00 8.1 18 Sudoeste 40 Sur 0.6 881.2 0.2 88
2019-10-14 16:00:00 7.7 17 Sudoeste 57 Sudoeste 2 880.9 0.1 89
2019-10-14 15:00:00 8.2 16 Sudoeste 45 Sur 2.2 881 0.6 88
2019-10-14 14:00:00 10.1 23 Sudoeste 52 Sudoeste 0 881 1.6 73
2019-10-14 13:00:00 11.1 25 Sudoeste 56 Sudoeste 0.4 880.8 1.6 70
2019-10-14 12:00:00 8.3 26 Sudoeste 51 Sudoeste 1.2 880.4 1.7 86
2019-10-14 11:00:00 9.4 21 Sudoeste 77 Sur 2 879.4 0.1 88
2019-10-14 10:00:00 10.8 37 Sudoeste 74 Sudoeste 1 879.2 -0.5 87
2019-10-14 09:00:00 11.8 19 Sudoeste 42 Sudoeste 0.2 878.7 -1.3 85
2019-10-14 08:00:00 11.9 24 Sur 55 Sur 0.2 879.3 -1.1 80
2019-10-14 07:00:00 12.1 22 Sudoeste 48 Sudoeste 1 879.7 -1.4 81
2019-10-14 06:00:00 12.4 21 Sudoeste 53 Sur 1 880 -1.6 82
2019-10-14 05:00:00 14.1 19 Sudoeste 49 Sudoeste 0 880.4 -1.6 64
2019-10-14 04:00:00 14.2 21 Sudoeste 49 Sudoeste 0 881.1 -1.2 63
2019-10-14 03:00:00 14.1 21 Sudoeste 53 Sudoeste 0 881.6 -1.3 64
2019-10-14 02:00:00 14.2 26 Sudoeste 59 Sur 0 882 -1.4 62
2019-10-14 01:00:00 14.3 30 Sudoeste 67 Sudoeste 0 882.3 -1.1 59
2019-10-14 00:00:00 13.9 33 Sudoeste 57 Sudoeste 0 882.9 -0.9 59
2019-10-13 23:00:00 14.3 30 Sudoeste 57 Sudoeste 0 883.4 -0.2 57
2019-10-13 22:00:00 14.6 24 Sudoeste 50 Sudoeste 0 883.4 -0.5 56
2019-10-13 21:00:00 15.7 23 Sudoeste 58 Sur 0 883.8 -0.6 53
2019-10-13 20:00:00 15.7 21 Sudoeste 46 Sudoeste 0 883.6 -1.3 57
2019-10-13 19:00:00 15.9 22 Sudoeste 53 Sur 0 883.9 -1.2 58
2019-10-13 18:00:00 16.1 18 Sudoeste 42 Sur 0 884.4 -1.2 59
2019-10-13 17:00:00 16.4 25 Sur 59 Sur 0 884.9 -1.2 59
2019-10-13 16:00:00 16.1 23 Sudoeste 37 Sur 0 885.1 -0.9 61
2019-10-13 15:00:00 16.8 22 Sur 41 Sur 0 885.6 -0.3 59
2019-10-13 14:00:00 15.2 18 Sudoeste 54 Sur 0 886.1 0.6 62
2019-10-13 13:00:00 15.7 24 Sur 49 Sur 0 886 1.2 59
2019-10-13 12:00:00 15.5 22 Sudoeste 47 Sudoeste 0 885.9 1.6 61
2019-10-13 11:00:00 13.8 22 Sudoeste 54 Sudoeste 0 885.5 1.6 65
2019-10-13 10:00:00 12.3 30 Sudoeste 57 Sudoeste 0 884.8 1.5 70
2019-10-13 09:00:00 12.3 27 Sudoeste 60 Sudoeste 0 884.3 0.9 77
2019-10-13 08:00:00 12.8 27 Sudoeste 64 Sudoeste 0 883.9 0.1 76
2019-10-13 07:00:00 13.7 32 Sudoeste 68 Sur 0 883.3 -0.7 77
2019-10-13 06:00:00 14.2 27 Sudoeste 53 Sudoeste 0 883.4 -0.5 76
2019-10-13 05:00:00 14.6 26 Sur 52 Sur 0 883.8 -0.6 72
2019-10-13 04:00:00 14.7 24 Sudoeste 66 Sur 0 884 -0.7 64
2019-10-13 03:00:00 15.8 38 Sudoeste 67 Sur 0 883.9 -0.9 56
2019-10-13 02:00:00 16.3 33 Sudoeste 65 Sur 0 884.4 -0.1 53
2019-10-13 01:00:00 17.5 33 Sudoeste 73 Sur 0 884.7 0.3 47
2019-10-13 00:00:00 18.3 35 Sudoeste 69 Sur 0 884.8 0.2 45
2019-10-12 23:00:00 19.1 31 Sudoeste 66 Sur 0 884.5 0.2 42
2019-10-12 22:00:00 19.8 35 Sudoeste 71 Sur 0 884.4 0.3 39
2019-10-12 21:00:00 19.2 29 Sudoeste 73 Sudoeste 0 884.6 0.6 40
2019-10-12 20:00:00 20.6 26 Sudoeste 60 Sur 0 884.3 -0.3 37
2019-10-12 19:00:00 21.4 25 Sudoeste 63 Sudoeste 0 884.1 -0.8 34
2019-10-12 18:00:00 23.1 24 Sudoeste 74 Sur 0 884 -1.5 31
2019-10-12 17:00:00 22.3 24 Sudoeste 58 Sur 0 884.6 -1.7 37
2019-10-12 16:00:00 23.5 27 Sudoeste 66 Sudoeste 0 884.9 -2.1 36
2019-10-12 15:00:00 21.5 31 Sudoeste 59 Sudoeste 0 885.5 -1.6 44
2019-10-12 14:00:00 21.8 32 Sudoeste 61 Sudoeste 0 886.3 -0.9 43
2019-10-12 13:00:00 21.6 14 Sudoeste 44 Sudoeste 0 887 0 50
2019-10-12 12:00:00 19 20 Sudoeste 55 Sudoeste 0 887.1 0.4 55
2019-10-12 11:00:00 17.8 22 Sudoeste 51 Sudoeste 0 887.2 0.7 60
2019-10-12 10:00:00 16.1 21 Sudoeste 42 Oeste 0 887 0.4 66
2019-10-12 09:00:00 15.2 21 Sudoeste 42 Sudoeste 0 886.7 0.2 69
2019-10-12 08:00:00 15.4 22 Sudoeste 45 Sudoeste 0 886.5 0 65
2019-10-12 07:00:00 15.7 19 Sudoeste 42 Sudoeste 0 886.6 -0.2 63
2019-10-12 06:00:00 16.2 19 Sudoeste 40 Sur 0 886.5 -0.9 60
2019-10-12 05:00:00 16.3 15 Sudoeste 40 Sudoeste 0 886.5 -1.1 60
2019-10-12 04:00:00 16.8 18 Sudoeste 35 Oeste 0 886.8 -1.4 61
2019-10-12 03:00:00 17 17 Sudoeste 44 Sudoeste 0 887.4 -1.3 62
2019-10-12 02:00:00 17.3 19 Sudoeste 37 Sudoeste 0 887.6 -1.2 60
2019-10-12 01:00:00 16.5 12 Sudoeste -- -- 0 888.2 0.2 62
2019-10-12 00:00:00 16 -- -- -- -- 0 888.7 0.6 63
2019-10-11 23:00:00 15.6 -- -- -- -- 0 888.8 0.7 63
2019-10-11 22:00:00 16.8 16 Oeste 19 Oeste 0 888 -0.3 55
2019-10-11 21:00:00 18 -- -- -- -- 0 888.1 -0.4 51
2019-10-11 20:00:00 19.8 10 Sudoeste 30 Sudoeste 0 888.1 -0.6 45
2019-10-11 19:00:00 22.1 13 Sudoeste -- -- 0 888.3 -0.8 40
2019-10-11 18:00:00 23.8 16 Sudoeste 42 Sur 0 888.5 -1.1 37
2019-10-11 17:00:00 24.9 17 Sudoeste -- -- 0 888.7 -1.8 34
2019-10-11 16:00:00 24.9 16 Sudoeste 44 Sudoeste 0 889.1 -1.9 33
2019-10-11 15:00:00 24.5 15 Sudoeste 38 Oeste 0 889.6 -1.7 33
2019-10-11 14:00:00 24.3 11 Sudoeste 31 Sudoeste 0 890.5 -1 33
2019-10-11 13:00:00 22.7 13 Sudoeste 31 Sudoeste 0 891 -0.2 34
2019-10-11 12:00:00 20.2 7 Sur 22 Sudoeste 0 891.3 0.5 41
2019-10-11 11:00:00 15.6 2 Sudeste 19 Oeste 0 891.5 1 56
2019-10-11 10:00:00 10.9 2 Nordeste 23 Oeste 0 891.2 0.7 67
2019-10-11 09:00:00 8.3 8 Noroeste 21 Oeste 0 890.8 0.3 70
2019-10-11 08:00:00 8.1 3 Nordeste 20 Oeste 0 890.5 -0.2 69
2019-10-11 07:00:00 8.1 3 Sudoeste 22 Oeste 0 890.5 -0.5 69
2019-10-11 06:00:00 8.8 5 Noroeste 21 Oeste 0 890.5 -0.8 66
2019-10-11 05:00:00 8.4 12 Oeste 23 Oeste 0 890.7 -0.7 68
2019-10-11 04:00:00 8.7 14 Oeste 22 Oeste 0 891 -0.9 68
2019-10-11 03:00:00 8.7 13 Oeste 22 Oeste 0 891.3 -0.9 68
2019-10-11 02:00:00 9.3 8 Noroeste 23 Oeste 0 891.4 -0.6 66
2019-10-11 01:00:00 9.9 7 Noroeste 22 Oeste 0 891.9 -0.1 67
2019-10-11 00:00:00 9.9 9 Noroeste 23 Oeste 0 892.2 0.3 69
2019-10-10 23:00:00 10.3 9 Noroeste 23 Oeste 0 892 0.4 65
2019-10-10 22:00:00 10.6 6 Noroeste 23 Oeste 0 892 0.6 62
2019-10-10 21:00:00 12.2 0 Calma 13 Sur 0 891.9 0.5 62
2019-10-10 20:00:00 14.2 6 Sudeste 15 Sudeste 0 891.6 -0.2 46
2019-10-10 19:00:00 19.2 9 Sur 16 Sur 0 891.4 -0.7 34
2019-10-10 18:00:00 20.6 11 Sur 19 Sur 0 891.4 -1.2 32
2019-10-10 17:00:00 21.1 11 Sudeste 20 Sur 0 891.8 -1.5 33
2019-10-10 16:00:00 20.6 8 Sudeste 21 Sudeste 0 892.1 -1.5 33
2019-10-10 15:00:00 19.5 9 Sudeste 18 Sudeste 0 892.6 -1.3 43
2019-10-10 14:00:00 17.9 5 Nordeste 17 Sudoeste 0 893.3 -0.6 43
2019-10-10 13:00:00 15.5 3 Este 19 Sur 0 893.6 -0.2 53
2019-10-10 12:00:00 13.6 5 Este 18 Sur 0 893.9 0.7 61
2019-10-10 11:00:00 8.6 8 Oeste 18 Oeste 0 893.9 1.1 88
2019-10-10 10:00:00 4.8 5 Noroeste 15 Oeste 0 893.8 1.2 94
2019-10-10 09:00:00 2.8 6 Noroeste 17 Oeste 0 893.2 0.3 95
2019-10-10 08:00:00 2.8 6 Oeste 16 Nordeste 0 892.8 0 95
2019-10-10 07:00:00 3.7 9 Noroeste 18 Oeste 0 892.6 -0.4 95
2019-10-10 06:00:00 2.9 8 Oeste 18 Oeste 0 892.9 -0.3 94
2019-10-10 05:00:00 3.9 6 Oeste 16 Oeste 0 892.8 -0.4 95
2019-10-10 04:00:00 5.2 4 Oeste 16 Oeste 0 893 -0.3 95
2019-10-10 03:00:00 5.5 8 Oeste 15 Oeste 0 893.2 0.2 95
2019-10-10 02:00:00 4.8 8 Oeste 18 Oeste 0 893.2 0.2 93
2019-10-10 01:00:00 5.3 14 Oeste 21 Oeste 0 893.3 0.5 92
2019-10-10 00:00:00 5.9 13 Oeste 18 Oeste 0 893 0.4 91
2019-10-09 23:00:00 6.2 6 Oeste 17 Oeste 0 893 0.8 89
2019-10-09 22:00:00 7.1 5 Oeste 17 Oeste 0 892.8 1 87
2019-10-09 21:00:00 7.8 7 Norte 17 Oeste 0 892.6 1.1 82
2019-10-09 20:00:00 9.9 4 Norte 15 Norte 0 892.2 0.7 73
2019-10-09 19:00:00 14.6 4 Nordeste 13 Noroeste 0 891.8 0.3 58
2019-10-09 18:00:00 17.2 5 Nordeste 23 Este 0 891.5 0 52
2019-10-09 17:00:00 18.3 12 Sudeste 24 Este 0 891.5 -0.3 48
2019-10-09 16:00:00 19.2 13 Sudeste 23 Este 0 891.5 -0.5 44
2019-10-09 15:00:00 18.9 8 Sudeste 25 Este 0 891.5 -0.9 45
2019-10-09 14:00:00 17.8 7 Este 19 Sudeste 0 891.8 -0.3 47
2019-10-09 13:00:00 16.2 5 Sudeste 18 Sur 0 892 0.4 49
2019-10-09 12:00:00 13.5 5 Noroeste 19 Sudoeste 0 892.4 1.1 59
2019-10-09 11:00:00 11.3 8 Sudeste 18 Oeste 0 892.1 1.1 80
2019-10-09 10:00:00 8.4 7 Oeste 19 Oeste 0 891.6 1.1 91
2019-10-09 09:00:00 7.6 7 Norte 19 Nordeste 0 891.3 1.3 92
2019-10-09 08:00:00 7.4 6 Norte 19 Nordeste 0 891 1 92
2019-10-09 07:00:00 8.3 4 Este 13 Sudoeste 0 890.5 0.8 87
2019-10-09 06:00:00 9.2 -- -- -- -- 0 890 0.4 86
2019-10-09 05:00:00 10.6 2 Oeste -- -- 0 890 0 87
2019-10-09 04:00:00 10.7 4 Este 17 Sur 0 889.7 -0.9 84
2019-10-09 03:00:00 11.2 3 Norte -- -- 0 889.6 -1 84
2019-10-09 02:00:00 11.3 4 Norte 17 Noroeste 0 890 -0.5 84
2019-10-09 01:00:00 11.2 6 Norte -- -- 0 890.6 0.3 86
2019-10-09 00:00:00 11.4 4 Noroeste 22 Oeste 0 890.6 0.2 87
2019-10-08 23:00:00 10.8 3 Sudeste -- -- 0 890.5 0.4 88
2019-10-08 22:00:00 11.8 6 Norte -- -- 0 890.3 0.8 87
2019-10-08 21:00:00 12.9 6 Norte 14 Noroeste 0 890.4 1.3 83
2019-10-08 20:00:00 16.1 3 Nordeste 22 Este 0 890.1 1 71
2019-10-08 19:00:00 19.8 14 Este 24 Este 0 889.5 0.2 62
2019-10-08 18:00:00 25.2 7 Nordeste 26 Sur 0 889.1 -0.4 43
2019-10-08 17:00:00 27.1 9 Sudoeste 28 Sudoeste 0 889.1 -0.7 33
2019-10-08 16:00:00 26.6 13 Sudoeste 31 Sudoeste 0 889.3 -1.2 33
2019-10-08 15:00:00 26.5 15 Sudoeste 32 Sudoeste 0 889.5 -1.4 33
2019-10-08 14:00:00 26.2 16 Sudoeste 39 Sur 0 889.8 -1.3 35
2019-10-08 13:00:00 23.6 6 Nordeste 21 Sur 0 890.5 -0.6 38
2019-10-08 12:00:00 20.7 7 Sur 14 Sur 0 890.9 -0.2 43
2019-10-08 11:00:00 15.6 0 Calma 10 Sudoeste 0 891.1 -0.1 62
2019-10-08 10:00:00 12.6 4 Noroeste 23 Oeste 0 891.1 -0.1 64
2019-10-08 09:00:00 9.2 9 Oeste 23 Oeste 0 891.1 -0.1 76
2019-10-08 08:00:00 9.5 4 Noroeste 22 Oeste 0 891.2 -0.4 75
2019-10-08 07:00:00 10.2 8 Noroeste 22 Oeste 0 891.2 -0.9 72
2019-10-08 06:00:00 10.5 5 Noroeste 14 Oeste 0 891.2 -1.1 71
2019-10-08 05:00:00 10.8 6 Oeste 21 Oeste 0 891.6 -0.9 69
2019-10-08 04:00:00 10.3 4 Norte 20 Sur 0 892.1 -0.7 73
2019-10-08 03:00:00 11.3 5 Noroeste 23 Oeste 0 892.3 -0.8 69
2019-10-08 02:00:00 11 6 Noroeste 22 Oeste 0 892.5 -0.6 72
2019-10-08 01:00:00 12.2 6 Noroeste 13 Oeste 0 892.8 0 68
2019-10-08 00:00:00 12.5 7 Noroeste 22 Oeste 0 893.1 0.4 70
2019-10-07 23:00:00 12.8 6 Noroeste 17 Noroeste 0 893.1 0.6 67
2019-10-07 22:00:00 13.5 5 Noroeste 18 Oeste 0 892.8 0.4 66
2019-10-07 21:00:00 14.5 9 Noroeste 18 Oeste 0 892.7 0.5 63
2019-10-07 20:00:00 17.7 9 Sudeste 16 Este 0 892.5 0.1 49
2019-10-07 19:00:00 22.5 13 Sur 23 Sur 0 892.4 0 37
2019-10-07 18:00:00 24.3 14 Sur 24 Sur 0 892.2 -0.4 33
2019-10-07 17:00:00 24.8 8 Sudeste 22 Sur 0 892.4 -0.5 33
2019-10-07 16:00:00 24.2 12 Sur 26 Sur 0 892.4 -0.7 31
2019-10-07 15:00:00 23.6 12 Sudeste 23 Sur 0 892.6 -0.5 34
2019-10-07 14:00:00 22.9 11 Este 19 Sur 0 892.9 0 37
2019-10-07 13:00:00 20.5 9 Sur 15 Sur 0 893.1 0.5 36
2019-10-07 12:00:00 18.1 6 Sudeste 12 Este 0 893.1 0.7 46
2019-10-07 11:00:00 15.4 4 Sudeste 12 Oeste 0 892.9 0.6 58
2019-10-07 10:00:00 10.8 4 Norte 24 Oeste 0 892.6 0.6 64
2019-10-07 09:00:00 9.7 10 Noroeste 25 Oeste 0 892.4 0.5 55
2019-10-07 08:00:00 7.5 13 Oeste 23 Oeste 0.2 892.3 0.1 73
2019-10-07 07:00:00 5.3 14 Oeste 22 Oeste 0 892 -0.6 95
2019-10-07 06:00:00 5.5 9 Noroeste 20 Oeste 0 891.9 -1.2 95
2019-10-07 05:00:00 6.5 10 Noroeste 19 Oeste 0 892.2 -0.9 95
2019-10-07 04:00:00 7.8 7 Sudoeste 17 Oeste 0 892.6 -0.6 95
2019-10-07 03:00:00 8.3 5 Sudoeste 18 Oeste 0 893.1 -0.4 95
2019-10-07 02:00:00 8.3 6 Oeste 17 Oeste 0 893.1 -0.2 95
2019-10-07 01:00:00 7.7 10 Sur 19 Sur 0 893.2 -0.2 92
2019-10-07 00:00:00 8.6 6 Oeste 20 Oeste 0 893.5 0.3 91
2019-10-06 23:00:00 9.3 4 Noroeste 17 Oeste 0 893.3 0.5 90
2019-10-06 22:00:00 10.3 4 Noroeste 17 Noroeste 0 893.4 1 87
2019-10-06 21:00:00 10.8 3 Norte 11 Oeste 0 893.2 1.1 83
2019-10-06 20:00:00 13.5 5 Este 14 Este 0 892.8 0.8 74
2019-10-06 19:00:00 17.9 8 Sudeste 19 Sur 0 892.4 0.1 61
2019-10-06 18:00:00 19.7 9 Sudeste 19 Sur 0 892.1 -0.4 56
2019-10-06 17:00:00 20.9 11 Sudeste 23 Sur 0 892 -0.8 51
2019-10-06 16:00:00 21.3 11 Sudeste 22 Sur 0 892.3 -0.6 48
2019-10-06 15:00:00 20.6 11 Sur 21 Sur 0 892.5 -0.4 49
2019-10-06 14:00:00 19.5 10 Sudeste 29 Sur 0 892.8 -0.2 51
2019-10-06 13:00:00 16.7 6 Este 16 Sudeste 0 892.9 0.4 63
2019-10-06 12:00:00 13.6 7 Sudeste 19 Sur 0 892.9 1.1 76
2019-10-06 11:00:00 10.7 6 Este 17 Sur 0 893 1.8 83
2019-10-06 10:00:00 10.5 4 Nordeste 21 Oeste 0 892.5 1.2 81
2019-10-06 09:00:00 7.8 8 Oeste 23 Oeste 0 891.8 0.7 83
2019-10-06 08:00:00 8.4 7 Oeste 24 Noroeste 0 891.2 0.3 79
2019-10-06 07:00:00 7.9 10 Noroeste 22 Oeste 0 891.3 0 90
2019-10-06 06:00:00 8.1 13 Noroeste 23 Oeste 0 891.1 -0.3 96
2019-10-06 05:00:00 7.6 14 Oeste 22 Oeste 0 890.9 0 95
2019-10-06 04:00:00 7.1 10 Sur -- -- 0 891.3 0.5 94
2019-10-06 03:00:00 7.7 3 Norte -- -- 0 891.4 0.4 93
2019-10-06 02:00:00 8.8 6 Oeste -- -- 0 890.9 -0.1 93
2019-10-06 01:00:00 9.9 4 Noroeste 22 Oeste 0 890.8 0.1 93
2019-10-06 00:00:00 10.4 5 Noroeste -- -- 0 891 0.7 91
2019-10-05 23:00:00 11.1 3 Noroeste -- -- 0 891 1.4 90
2019-10-05 22:00:00 12 4 Noroeste 16 Noroeste 0 890.7 1.9 87
2019-10-05 21:00:00 13.2 6 Norte -- -- 0 890.3 1.9 80
2019-10-05 20:00:00 16.6 9 Norte -- -- 0 889.6 1.2 64
2019-10-05 19:00:00 22.7 11 Sudoeste 31 Sur 0 888.8 0.4 39
2019-10-05 18:00:00 24.3 13 Sudoeste 36 Sudoeste 0 888.4 -0.4 36
2019-10-05 17:00:00 25.5 14 Sudoeste 26 Sur 0 888.4 -0.7 32
2019-10-05 16:00:00 25.5 14 Sudoeste 28 Sur 0 888.4 -1.2 36
2019-10-05 15:00:00 25.2 13 Sudoeste 27 Sur 0 888.8 -1 41
2019-10-05 14:00:00 22.7 16 Sudeste 27 Sur 0 889.1 -0.7 53
2019-10-05 13:00:00 19.8 9 Sudeste 19 Sur 0 889.6 0 60
2019-10-05 12:00:00 17.8 6 Sudeste 18 Sudoeste 0 889.8 0.6 64
2019-10-05 11:00:00 12.2 4 Sudoeste 20 Oeste 0 889.8 1 94
2019-10-05 10:00:00 7.7 14 Oeste 21 Oeste 0 889.6 0.8 96
2019-10-05 09:00:00 7.5 10 Oeste 20 Oeste 0 889.2 0.1 96
2019-10-05 08:00:00 8 5 Norte 19 Oeste 0 888.8 -0.5 96
2019-10-05 07:00:00 8.6 7 Noroeste 18 Oeste 0 888.8 -0.8 96
2019-10-05 06:00:00 8.9 5 Noroeste 18 Oeste 0 889.1 -1 95
2019-10-05 05:00:00 9.6 5 Noroeste 18 Oeste 0 889.3 -0.6 95
2019-10-05 04:00:00 10 4 Noroeste 18 Oeste 0 889.6 -0.6 94
2019-10-05 03:00:00 10.4 4 Oeste 15 Oeste 0 890.1 -0.1 94
2019-10-05 02:00:00 10.4 4 Norte 14 Sudoeste 0 889.9 -0.2 94
2019-10-05 01:00:00 10.1 2 Norte 17 Oeste 0 890.2 0.2 94
2019-10-05 00:00:00 9.4 7 Sudeste 17 Sudoeste 0 890.2 0.3 92
2019-10-04 23:00:00 10.3 4 Norte 13 Noroeste 0 890.1 0.5 92
2019-10-04 22:00:00 11 5 Norte 14 Noroeste 0 890 1.1 90
2019-10-04 21:00:00 12.1 8 Noroeste 15 Noroeste 0 889.9 1.4 87
2019-10-04 20:00:00 14.2 3 Norte 13 Este 0 889.6 1.2 78
2019-10-04 19:00:00 19.4 10 Sur 22 Este 0 888.9 0.1 59
2019-10-04 18:00:00 23.1 10 Este 31 Sur 0 888.5 -0.8 48
2019-10-04 17:00:00 24.4 13 Sur 27 Sur 0 888.4 -1.8 41
2019-10-04 16:00:00 23.2 14 Sur 33 Sudoeste 0 888.8 -1.7 45
2019-10-04 15:00:00 21.9 16 Sudeste 27 Sudeste 0 889.3 -1.6 49
2019-10-04 14:00:00 21 13 Sudeste 23 Este 0 890.2 -0.6 53
2019-10-04 13:00:00 18.8 6 Sur 17 Sur 0 890.5 0.1 57
2019-10-04 12:00:00 16.8 3 Nordeste 13 Oeste 0 890.9 0.7 65
2019-10-04 11:00:00 13.3 4 Oeste 19 Oeste 0 890.8 1 76
2019-10-04 10:00:00 10.2 6 Noroeste 21 Oeste 0 890.4 0.5 84
2019-10-04 09:00:00 7.9 9 Noroeste 19 Oeste 0 890.2 0.2 85
2019-10-04 08:00:00 8.3 6 Noroeste 24 Oeste 0 889.8 -0.3 87
2019-10-04 07:00:00 8.9 6 Noroeste 23 Oeste 0 889.9 -0.4 85
2019-10-04 06:00:00 9.3 13 Oeste 24 Oeste 0 890 -0.8 84
2019-10-04 05:00:00 9.6 5 Noroeste 25 Oeste 0 890.1 -1 81
2019-10-04 04:00:00 10.2 9 Noroeste 23 Oeste 0 890.3 -1.1 80
2019-10-04 03:00:00 10 7 Noroeste 21 Oeste 0 890.8 -0.8 81
2019-10-04 02:00:00 10.5 9 Oeste 24 Oeste 0 891.1 -0.5 78
2019-10-04 01:00:00 11.2 5 Noroeste 20 Oeste 0 891.4 0 76
2019-10-04 00:00:00 11.5 5 Noroeste 21 Oeste 0 891.6 0.5 80
2019-10-03 23:00:00 11 4 Noroeste 15 Oeste 0 891.6 1 79
2019-10-03 22:00:00 12.4 7 Noroeste 15 Noroeste 0 891.4 1.1 74
2019-10-03 21:00:00 14 7 Sudoeste 14 Sur 0 891.1 0.9 66
2019-10-03 20:00:00 17.9 10 Sur 16 Sur 0 890.6 0.4 54
2019-10-03 19:00:00 22.1 9 Este 20 Sur 0 890.3 0.1 41
2019-10-03 18:00:00 23.5 11 Este 20 Sudeste 0 890.2 -0.5 39
2019-10-03 17:00:00 23.8 12 Este 23 Sur 0 890.2 -0.7 36
2019-10-03 16:00:00 24.2 10 Este 21 Sur 0 890.2 -1 35
2019-10-03 15:00:00 22.7 13 Sudeste 20 Sur 0 890.7 -0.7 40
2019-10-03 14:00:00 20.1 8 Sur 18 Sudeste 0 890.9 -0.5 43
2019-10-03 13:00:00 16.2 5 Este 18 Sur 0 891.2 0 64
2019-10-03 12:00:00 12.4 5 Este 18 Sur 0 891.4 0.7 81
2019-10-03 11:00:00 9.2 9 Sur 13 Sur 0 891.4 0.7 97
2019-10-03 10:00:00 5.9 2 Sudoeste 16 Oeste 0 891.2 0.7 96
2019-10-03 09:00:00 5.1 6 Oeste 18 Oeste 0 890.7 0.2 96
2019-10-03 08:00:00 6.1 10 Oeste 19 Oeste 0 890.7 0 96
2019-10-03 07:00:00 6.6 10 Noroeste 19 Oeste 0 890.5 -0.6 96
2019-10-03 06:00:00 7.2 8 Noroeste 19 Oeste 0 890.5 -1.3 96
2019-10-03 05:00:00 7.4 10 Oeste 21 Oeste 0 890.7 -1.3 96
2019-10-03 04:00:00 7.6 11 Oeste 19 Oeste 0 891.1 -1.2 95
2019-10-03 03:00:00 8 8 Oeste 16 Sudoeste 0 891.8 -0.8 95
2019-10-03 02:00:00 7.7 4 Oeste 17 Oeste 0 892 -0.7 95
2019-10-03 01:00:00 6.9 9 Sur 16 Oeste 0 892.3 -0.4 91
2019-10-03 00:00:00 8 5 Oeste 20 Oeste 0 892.6 0.3 91
2019-10-02 23:00:00 8.5 8 Oeste 18 Oeste 0 892.7 0.8 91
2019-10-02 22:00:00 8.9 3 Sudoeste 17 Sudoeste 0 892.7 1.2 88
2019-10-02 21:00:00 10.7 4 Sudeste 14 Nordeste 0 892.3 1.1 78
2019-10-02 20:00:00 13.5 5 Este 16 Nordeste 0 891.9 0.8 66
2019-10-02 19:00:00 17.3 5 Nordeste 15 Noroeste 0 891.5 0.4 55
2019-10-02 18:00:00 17.9 8 Noroeste 16 Noroeste 0 891.2 0.2 50
2019-10-02 17:00:00 19.2 8 Norte 19 Noroeste 0 891.1 -0.1 46
2019-10-02 16:00:00 18.2 12 Noroeste 25 Norte 0 891.1 -0.4 49
2019-10-02 15:00:00 18.2 10 Norte 28 Nordeste 0 891 0.1 48
2019-10-02 14:00:00 17.3 8 Nordeste 27 Nordeste 0 891.2 0.4 49
2019-10-02 13:00:00 15.8 5 Este 15 Sur 0 891.5 1.5 55
2019-10-02 12:00:00 14.1 5 Nordeste 19 Oeste 0 890.9 1.7 60
2019-10-02 11:00:00 11.3 9 Sudoeste 18 Oeste 0 890.8 2 81
2019-10-02 10:00:00 6.9 13 Oeste 20 Oeste 0 890 1.6 94
2019-10-02 09:00:00 4.9 10 Noroeste 20 Oeste 0 889.2 0.8 95
2019-10-02 08:00:00 4.6 9 Noroeste 20 Oeste 0 888.8 0.3 96
2019-10-02 07:00:00 5.3 9 Noroeste 20 Oeste 0 888.4 -0.3 95
2019-10-02 06:00:00 6.6 12 Noroeste 21 Oeste 0 888.4 -0.2 95
2019-10-02 05:00:00 7.7 10 Oeste 20 Oeste 0 888.5 0 95
2019-10-02 04:00:00 7.9 14 Oeste 22 Oeste 0 888.7 0.2 95
2019-10-02 03:00:00 8.9 5 Sudoeste 18 Sudoeste 0 888.6 0.2 94
2019-10-02 02:00:00 9.2 3 Oeste 15 Oeste 0 888.5 0.6 95
2019-10-02 01:00:00 9.4 6 Sudeste 15 Sur 0 888.5 0.9 94
2019-10-02 00:00:00 9.6 8 Sudeste 24 Oeste 0 888.4 1.3 92
2019-10-01 23:00:00 10.6 6 Noroeste 20 Oeste 0 887.9 1.4 93
2019-10-01 22:00:00 10.7 0 Calma 17 Sur 0 887.6 1.9 90
2019-10-01 21:00:00 12.4 4 Este 18 Nordeste 0 887.1 1.6 84
2019-10-01 20:00:00 15.6 9 Este 20 Nordeste 0 886.5 1.1 72
2019-10-01 19:00:00 20.3 11 Sudoeste 33 Sudoeste 0 885.7 0.3 41
2019-10-01 18:00:00 22.5 15 Sudoeste 32 Sudoeste 0 885.5 -0.2 38
2019-10-01 17:00:00 23.8 12 Sudoeste 30 Oeste 0 885.4 -0.9 35
2019-10-01 16:00:00 23.3 14 Oeste 34 Sudoeste 0 885.4 -1.3 32
2019-10-01 15:00:00 22.1 14 Sudoeste 33 Sudoeste 0 885.7 -1.3 43
2019-10-01 14:00:00 21.1 6 Oeste 20 Sur 0 886.3 -0.4 47
2019-10-01 13:00:00 19.6 8 Sudoeste 16 Sur 0 886.7 0.3 54
2019-10-01 12:00:00 16.5 4 Este 14 Sur 0 887 1.3 67
2019-10-01 11:00:00 14.9 8 Sudeste 22 Sur 0 886.7 -- 76
2019-10-01 10:00:00 10.3 4 Nordeste 12 Este 0 886.4 -- 87
2019-10-01 09:00:00 9.4 4 Nordeste -- -- -- 885.7 -- 86
2019-10-01 08:00:00 -- -- -- -- -- -- -- -- --
2019-10-01 07:00:00 -- -- -- -- -- -- -- -- --
2019-10-01 06:00:00 -- -- -- -- -- -- -- -- --
2019-10-01 05:00:00 -- -- -- -- -- -- -- -- --
2019-10-01 04:00:00 -- -- -- -- -- -- -- -- --
2019-10-01 03:00:00 -- -- -- -- -- -- -- -- --
2019-10-01 02:00:00 -- -- -- -- -- -- -- -- --
2019-10-01 01:00:00 -- -- -- -- -- -- -- -- --
2019-10-01 00:00:00 -- -- -- -- -- -- -- -- --
2019-09-30 23:00:00 -- -- -- -- -- -- -- -- --
2019-09-30 22:00:00 -- -- -- -- -- -- -- -- --
2019-09-30 21:00:00 -- -- -- -- -- -- -- -- --
2019-09-30 20:00:00 -- -- -- -- -- -- -- -- --
2019-09-30 19:00:00 -- -- -- -- -- -- -- -- --
2019-09-30 18:00:00 -- -- -- -- -- -- -- -- --
2019-09-30 17:00:00 -- -- -- -- -- -- -- -- --
2019-09-30 16:00:00 -- -- -- -- -- -- -- -- --
2019-09-30 15:00:00 -- -- -- -- -- -- -- -- --
2019-09-30 14:00:00 -- -- -- -- -- -- -- -- --
2019-09-30 13:00:00 -- -- -- -- -- -- -- -- --
2019-09-30 12:00:00 -- -- -- -- -- -- -- -- --
2019-09-30 11:00:00 -- -- -- -- -- -- -- -- --
2019-09-30 10:00:00 -- -- -- -- -- -- -- -- --
2019-09-30 09:00:00 -- -- -- -- -- -- -- -- --
2019-09-30 08:00:00 8.9 5 Noroeste 21 Oeste 0 890 -0.2 90
2019-09-30 07:00:00 8.8 9 Noroeste -- -- 0 890 -0.6 91
2019-09-30 06:00:00 9.9 5 Noroeste 23 Oeste 0 890 -0.9 89
2019-09-30 05:00:00 9.6 8 Noroeste 21 Oeste 0 890.2 -0.7 91
2019-09-30 04:00:00 10.2 6 Oeste 20 Oeste 0 890.6 -0.5 90
2019-09-30 03:00:00 10.2 4 Noroeste 21 Oeste 0 890.9 -0.2 88
2019-09-30 02:00:00 10.7 4 Noroeste 20 Oeste 0 890.9 0 85
2019-09-30 01:00:00 11 4 Noroeste 19 Oeste 0 891.1 0.6 83
2019-09-30 00:00:00 12.2 5 Noroeste 15 Noroeste 0 891.1 1.3 76
2019-09-29 23:00:00 13.9 5 Noroeste 19 Noroeste 0 890.9 1.4 69
2019-09-29 22:00:00 15.3 13 Noroeste 18 Noroeste 0 890.5 1.1 64
2019-09-29 21:00:00 17.1 8 Norte 23 Sur 0 889.8 0.4 59
2019-09-29 20:00:00 20.3 13 Sudoeste 28 Sudoeste 0 889.5 0 47
2019-09-29 19:00:00 22.9 -- -- -- -- 0 889.4 -0.1 41
2019-09-29 18:00:00 24.7 11 Sudoeste -- -- 0 889.4 -0.3 39
2019-09-29 17:00:00 24.4 -- -- -- -- 0 889.5 -0.6 37
2019-09-29 16:00:00 25.3 14 Sudoeste 36 Sur 0 889.5 -0.7 34
2019-09-29 15:00:00 24.5 15 Sudoeste 33 Sur 0 889.7 -0.8 34
2019-09-29 14:00:00 24 16 Sudoeste 37 Sudoeste 0 890.1 -0.3 36
2019-09-29 13:00:00 22.7 15 Sudoeste 35 Oeste 0 890.2 0.3 36
2019-09-29 12:00:00 21.4 10 Sudoeste 29 Sudoeste 0 890.5 1 35
2019-09-29 11:00:00 17.2 4 Sudeste 19 Sudoeste 0 890.4 1.2 35
2019-09-29 10:00:00 12.8 3 Este 18 Sudoeste 0 889.9 0.6 52
2019-09-29 09:00:00 10.4 3 Este 15 Oeste 0 889.5 0.1 56
2019-09-29 08:00:00 11 3 Oeste 21 Oeste 0 889.2 -0.4 51
2019-09-29 07:00:00 11.1 5 Oeste 18 Oeste 0 889.3 -0.7 56
2019-09-29 06:00:00 11.3 5 Noroeste 17 Oeste 0 889.4 -0.8 57
2019-09-29 05:00:00 12.2 4 Oeste 14 Oeste 0 889.6 -0.9 54
2019-09-29 04:00:00 13.1 5 Noroeste 15 Oeste 0 890 -0.9 51
2019-09-29 03:00:00 12.6 4 Sudoeste 14 Oeste 0 890.2 -0.8 53
2019-09-29 02:00:00 13.4 6 Oeste 18 Oeste 0 890.5 -0.4 51
2019-09-29 01:00:00 12.6 4 Oeste 17 Oeste 0 890.9 0 55
2019-09-29 00:00:00 12.5 3 Sudoeste 9 Sudoeste 0 891 0.3 54
2019-09-28 23:00:00 13.2 5 Oeste 16 Oeste 0 890.9 0.3 51
2019-09-28 22:00:00 14.5 5 Oeste 18 Oeste 0 890.9 0.2 47
2019-09-28 21:00:00 15.5 7 Oeste 20 Sur 0 890.7 0 45
2019-09-28 20:00:00 18.8 8 Sudoeste 17 Oeste 0 890.6 -0.2 35
2019-09-28 19:00:00 22.7 9 Sur 33 Sudoeste 0 890.7 -0.4 28
2019-09-28 18:00:00 23.4 10 Sudoeste 26 Sudoeste 0 890.7 -0.8 26
2019-09-28 17:00:00 24.3 16 Sur 28 Sur 0 890.8 -1.6 26
2019-09-28 16:00:00 24 16 Sudoeste 35 Sudoeste 0 891.1 -1.7 29
2019-09-28 15:00:00 23.8 12 Sudoeste 30 Sudoeste 0 891.5 -1.5 29
2019-09-28 14:00:00 21.4 10 Sudoeste 30 Sudoeste 0 892.4 -0.7 41
2019-09-28 13:00:00 19.3 9 Sudeste 24 Sur 0 892.8 0.1 51
2019-09-28 12:00:00 17 9 Sudeste 24 Sur 0 893 0.5 62
2019-09-28 11:00:00 11.5 3 Norte 14 Oeste 0 893.1 0.8 84
2019-09-28 10:00:00 10.6 4 Noroeste 19 Oeste 0 892.7 0.5 86
2019-09-28 09:00:00 10.2 4 Noroeste 18 Oeste 0 892.5 0.1 90
2019-09-28 08:00:00 10.4 4 Oeste 15 Sudoeste 0 892.3 -0.1 91
2019-09-28 07:00:00 10.7 2 Noroeste 14 Sudoeste 0 892.2 -0.5 92
2019-09-28 06:00:00 10.7 5 Sudeste 15 Sudoeste 0 892.4 -0.3 92
2019-09-28 05:00:00 10.7 5 Sudeste 16 Sur 0 892.4 -0.4 92
2019-09-28 04:00:00 10.9 7 Sudeste 17 Sur 0 892.7 -0.1 92
2019-09-28 03:00:00 11.1 3 Este 14 Sur 0 892.7 0.1 92
2019-09-28 02:00:00 11.2 3 Nordeste 11 Sudeste 0 892.8 0.2 92
2019-09-28 01:00:00 11.4 5 Sudeste 17 Sudoeste 0 892.8 0.7 92
2019-09-28 00:00:00 11.7 3 Noroeste 17 Sudoeste 0 892.6 1.1 92
2019-09-27 23:00:00 11.6 0 Calma 11 Sur 0 892.6 1.8 91
2019-09-27 22:00:00 12.3 6 Este 15 Este 0 892.1 1.7 89
2019-09-27 21:00:00 14.1 5 Nordeste 22 Sudoeste 0 891.5 1.3 74
2019-09-27 20:00:00 17.5 9 Sudoeste 31 Sudoeste 0 890.8 0.5 57
2019-09-27 19:00:00 20.6 16 Sudoeste 35 Sudoeste 0 890.4 0.2 46
2019-09-27 18:00:00 22.5 -- -- -- -- 0 890.2 -0.5 47
2019-09-27 17:00:00 24.2 12 Sudoeste 29 Sudoeste 0 890.3 -0.8 40
2019-09-27 16:00:00 23.3 -- -- -- -- 0 890.2 -1.3 41
2019-09-27 15:00:00 22.7 15 Sudoeste -- -- 0 890.7 -1.1 39
2019-09-27 14:00:00 20.9 15 Sur 28 Sudeste 0 891.1 -0.6 49
2019-09-27 13:00:00 19.6 10 Sudeste 22 Sur 0 891.5 -- 52
2019-09-27 12:00:00 16.9 6 Este 16 Este 0 891.8 -- 61
2019-09-27 11:00:00 14.2 3 Sur -- -- -- 891.7 -- 67
2019-09-27 10:00:00 -- -- -- -- -- -- -- -- --
2019-09-27 09:00:00 -- -- -- -- -- -- -- -- --
2019-09-27 08:00:00 -- -- -- -- -- -- -- -- --
2019-09-27 07:00:00 -- -- -- -- -- -- -- -- --
2019-09-27 06:00:00 -- -- -- -- -- -- -- -- --
2019-09-27 05:00:00 -- -- -- -- -- -- -- -- --
2019-09-27 04:00:00 -- -- -- -- -- -- -- -- --
2019-09-27 03:00:00 10.7 6 Noroeste 24 Oeste 0 891 -0.4 65
2019-09-27 02:00:00 10.8 10 Oeste 26 Oeste 0 891.1 -0.1 67
2019-09-27 01:00:00 11.8 9 Noroeste 23 Oeste 0 891.4 0.3 66
2019-09-27 00:00:00 12.4 10 Noroeste 25 Oeste 0 891.4 0.7 66
2019-09-26 23:00:00 12.2 6 Noroeste 21 Oeste 0 891.2 0.8 69
2019-09-26 22:00:00 14.4 5 Oeste 18 Oeste 0 891.1 1 57
2019-09-26 21:00:00 16.6 10 Oeste 19 Oeste 0 890.7 0.9 49
2019-09-26 20:00:00 18.8 8 Oeste 20 Sudoeste 0 890.4 0.5 42
2019-09-26 19:00:00 22.5 9 Sudoeste 23 Sudoeste 0 890.1 0.2 35
2019-09-26 18:00:00 23.8 13 Sudoeste 42 Sudoeste 0 889.8 -0.3 32
2019-09-26 17:00:00 24 17 Sudoeste 40 Sudoeste 0 889.9 -0.7 30
2019-09-26 16:00:00 24.3 15 Sudoeste 39 Sudoeste 0 889.9 -0.6 29
2019-09-26 15:00:00 23.2 17 Sudoeste 38 Sudoeste 0 890.1 -0.5 28
2019-09-26 14:00:00 23.3 13 Sudoeste 34 Sudoeste 0 890.6 -0.1 33
2019-09-26 13:00:00 20.6 9 Sur 18 Sudoeste 0 890.5 -- 36
2019-09-26 12:00:00 17 5 Oeste 13 Oeste 0 890.6 -- 55
2019-09-26 11:00:00 13.3 3 Nordeste 9 Este 0 890.7 -- 75
2019-09-26 10:00:00 -- -- -- -- -- -- -- -- --
2019-09-26 09:00:00 -- -- -- -- -- -- -- -- --
2019-09-26 08:00:00 -- -- -- -- -- -- -- -- --
2019-09-26 07:00:00 -- -- -- -- -- -- -- -- --
2019-09-26 06:00:00 -- -- -- -- -- -- -- -- --
2019-09-26 05:00:00 -- -- -- -- -- -- -- -- --
2019-09-26 04:00:00 -- -- -- -- -- -- -- -- --
2019-09-26 03:00:00 -- -- -- -- -- -- -- -- --
2019-09-26 02:00:00 -- -- -- -- -- -- -- -- --
2019-09-26 01:00:00 -- -- -- -- -- -- -- -- --
2019-09-26 00:00:00 -- -- -- -- -- -- -- -- --
2019-09-25 23:00:00 -- -- -- -- -- -- -- -- --
2019-09-25 22:00:00 -- -- -- -- -- -- -- -- --
2019-09-25 21:00:00 -- -- -- -- -- -- -- -- --
2019-09-25 20:00:00 -- -- -- -- -- -- -- -- --
2019-09-25 19:00:00 -- -- -- -- -- -- -- -- --
2019-09-25 18:00:00 -- -- -- -- -- -- -- -- --
2019-09-25 17:00:00 -- -- -- -- -- -- -- -- --
2019-09-25 16:00:00 -- -- -- -- -- -- -- -- --
2019-09-25 15:00:00 -- -- -- -- -- -- -- -- --
2019-09-25 14:00:00 -- -- -- -- -- -- -- -- --
2019-09-25 13:00:00 -- -- -- -- -- -- -- -- --
2019-09-25 12:00:00 -- -- -- -- -- -- -- -- --
2019-09-25 11:00:00 -- -- -- -- -- -- -- -- --
2019-09-25 10:00:00 -- -- -- -- -- -- -- -- --
2019-09-25 09:00:00 -- -- -- -- -- -- -- -- --
2019-09-25 08:00:00 -- -- -- -- -- -- -- -- --
2019-09-25 07:00:00 -- -- -- -- -- -- -- -- --
2019-09-25 06:00:00 -- -- -- -- -- -- -- -- --
2019-09-25 05:00:00 -- -- -- -- -- -- -- -- --
2019-09-25 04:00:00 -- -- -- -- -- -- -- -- --
2019-09-25 03:00:00 -- -- -- -- -- -- -- -- --
2019-09-25 02:00:00 -- -- -- -- -- -- -- -- --
2019-09-25 01:00:00 -- -- -- -- -- -- -- -- --
2019-09-25 00:00:00 -- -- -- -- -- -- -- -- --
2019-09-24 23:00:00 -- -- -- -- -- -- -- -- --
2019-09-24 22:00:00 -- -- -- -- -- -- -- -- --
2019-09-24 21:00:00 -- -- -- -- -- -- -- -- --
2019-09-24 20:00:00 -- -- -- -- -- -- -- -- --
2019-09-24 19:00:00 -- -- -- -- -- -- -- -- --
2019-09-24 18:00:00 -- -- -- -- -- -- -- -- --
2019-09-24 17:00:00 -- -- -- -- -- -- -- -- --
2019-09-24 16:00:00 -- -- -- -- -- -- -- -- --
2019-09-24 15:00:00 -- -- -- -- -- -- -- -- --
2019-09-24 14:00:00 -- -- -- -- -- -- -- -- --
2019-09-24 13:00:00 -- -- -- -- -- -- -- -- --
2019-09-24 12:00:00 -- -- -- -- -- -- -- -- --
2019-09-24 11:00:00 -- -- -- -- -- -- -- -- --
2019-09-24 10:00:00 -- -- -- -- -- -- -- -- --
2019-09-24 09:00:00 -- -- -- -- -- -- -- -- --
2019-09-24 08:00:00 -- -- -- -- -- -- -- -- --
2019-09-24 07:00:00 -- -- -- -- -- -- -- -- --
2019-09-24 06:00:00 -- -- -- -- -- -- -- -- --
2019-09-24 05:00:00 -- -- -- -- -- -- -- -- --
2019-09-24 04:00:00 -- -- -- -- -- -- -- -- --
2019-09-24 03:00:00 14.2 11 Sudoeste 36 Oeste 0 889 -1.6 60
2019-09-24 02:00:00 14.2 10 Oeste 50 Sur 0 889.7 -1.3 61
2019-09-24 01:00:00 13.3 6 Nordeste 17 Oeste 0 890 -0.9 70
2019-09-24 00:00:00 13.6 3 Sur 11 Sur 0 890.6 0 70
2019-09-23 23:00:00 13.2 5 Sudoeste 14 Oeste 0 891 0.4 69
2019-09-23 22:00:00 13.1 4 Norte 15 Noroeste 0 890.9 0.4 70
2019-09-23 21:00:00 13.6 3 Nordeste 17 Sur 0 890.6 0 71
2019-09-23 20:00:00 14.4 4 Sur 26 Sudoeste 0 890.6 0.3 67
2019-09-23 19:00:00 15.6 4 Sudoeste 30 Sudoeste 0 890.5 0 63
2019-09-23 18:00:00 16.4 6 Sur 29 Sudoeste 0 890.6 0.1 59
2019-09-23 17:00:00 16.5 9 Sur 32 Sur 0 890.3 -0.7 57
2019-09-23 16:00:00 17.2 10 Sudoeste 32 Sur 0 890.5 -0.1 53
2019-09-23 15:00:00 17.6 8 Sur 31 Sur 0 890.5 -0.6 50
2019-09-23 14:00:00 17.6 13 Sudoeste 31 Sur 0 891 -0.2 53
2019-09-23 13:00:00 14.7 17 Sur 28 Sur 0 890.6 0.2 61
2019-09-23 12:00:00 13.7 15 Sur 28 Sur 0 891.1 -- 65
2019-09-23 11:00:00 11.4 10 Sudeste 22 Sur 0 891.2 -- 77
2019-09-23 10:00:00 9.5 11 Sur -- -- -- 890.4 -- 85
2019-09-23 09:00:00 -- -- -- -- -- -- -- -- --
2019-09-23 08:00:00 -- -- -- -- -- -- -- -- --
2019-09-23 07:00:00 -- -- -- -- -- -- -- -- --
2019-09-23 06:00:00 -- -- -- -- -- -- -- -- --
2019-09-23 05:00:00 -- -- -- -- -- -- -- -- --
2019-09-23 04:00:00 -- -- -- -- -- -- -- -- --
2019-09-23 03:00:00 -- -- -- -- -- -- -- -- --
2019-09-23 02:00:00 -- -- -- -- -- -- -- -- --
2019-09-23 01:00:00 -- -- -- -- -- -- -- -- --
2019-09-23 00:00:00 -- -- -- -- -- -- -- -- --
2019-09-22 23:00:00 -- -- -- -- -- -- -- -- --
2019-09-22 22:00:00 -- -- -- -- -- -- -- -- --
2019-09-22 21:00:00 -- -- -- -- -- -- -- -- --
2019-09-22 20:00:00 -- -- -- -- -- -- -- -- --
2019-09-22 19:00:00 -- -- -- -- -- -- -- -- --
2019-09-22 18:00:00 -- -- -- -- -- -- -- -- --
2019-09-22 17:00:00 -- -- -- -- -- -- -- -- --
2019-09-22 16:00:00 -- -- -- -- -- -- -- -- --
2019-09-22 15:00:00 -- -- -- -- -- -- -- -- --
2019-09-22 14:00:00 -- -- -- -- -- -- -- -- --
2019-09-22 13:00:00 -- -- -- -- -- -- -- -- --
2019-09-22 12:00:00 -- -- -- -- -- -- -- -- --
2019-09-22 11:00:00 -- -- -- -- -- -- -- -- --
2019-09-22 10:00:00 -- -- -- -- -- -- -- -- --
2019-09-22 09:00:00 -- -- -- -- -- -- -- -- --
2019-09-22 08:00:00 -- -- -- -- -- -- -- -- --
2019-09-22 07:00:00 -- -- -- -- -- -- -- -- --
2019-09-22 06:00:00 -- -- -- -- -- -- -- -- --
2019-09-22 05:00:00 -- -- -- -- -- -- -- -- --
2019-09-22 04:00:00 -- -- -- -- -- -- -- -- --
2019-09-22 03:00:00 -- -- -- -- -- -- -- -- --
2019-09-22 02:00:00 -- -- -- -- -- -- -- -- --
2019-09-22 01:00:00 -- -- -- -- -- -- -- -- --
2019-09-22 00:00:00 -- -- -- -- -- -- -- -- --
2019-09-21 23:00:00 -- -- -- -- -- -- -- -- --
2019-09-21 22:00:00 -- -- -- -- -- -- -- -- --
2019-09-21 21:00:00 -- -- -- -- -- -- -- -- --
2019-09-21 20:00:00 -- -- -- -- -- -- -- -- --
2019-09-21 19:00:00 -- -- -- -- -- -- -- -- --
2019-09-21 18:00:00 -- -- -- -- -- -- -- -- --
2019-09-21 17:00:00 -- -- -- -- -- -- -- -- --
2019-09-21 16:00:00 -- -- -- -- -- -- -- -- --
2019-09-21 15:00:00 -- -- -- -- -- -- -- -- --
2019-09-21 14:00:00 -- -- -- -- -- -- -- -- --
2019-09-21 13:00:00 14.8 19 Sudoeste 41 Sur 0 883.7 0.1 75
2019-09-21 12:00:00 15.1 13 Sudoeste 41 Sudoeste 0 883.9 0.3 75
2019-09-21 11:00:00 15.3 25 Sudoeste 53 Sudoeste 0 883.5 0 76
2019-09-21 10:00:00 13.7 21 Sudoeste 49 Sudoeste 0 883.6 -0.1 81
2019-09-21 09:00:00 13 16 Sudoeste 31 Sur 0 883.6 -0.2 83
2019-09-21 08:00:00 12.9 20 Sudoeste 36 Sudoeste 0 883.5 -0.8 86
2019-09-21 07:00:00 12.8 12 Sudoeste 36 Sur 0 883.7 -0.9 87
2019-09-21 06:00:00 13.3 15 Sur 38 Sur 0.2 883.8 -1.2 91
2019-09-21 05:00:00 13.2 12 Sur 33 Sur 0 884.3 -1.1 92
2019-09-21 04:00:00 12.7 15 Sur 36 Sur 0 884.6 -1.6 94
2019-09-21 03:00:00 12.6 4 Sudeste 15 Sudeste 0 885 -0.9 94
2019-09-21 02:00:00 12.9 5 Nordeste 34 Sur 0 885.4 -1.1 94
2019-09-21 01:00:00 12.9 6 Este 18 Sur 0 886.2 -0.2 94
2019-09-21 00:00:00 12.5 3 Nordeste 13 Este 0.2 885.9 -0.2 93
2019-09-20 23:00:00 13.2 7 Norte 26 Sur 0 886.5 -0.4 92
2019-09-20 22:00:00 13.5 4 Oeste 15 Oeste 0 886.4 0 90
2019-09-20 21:00:00 13.9 4 Oeste 22 Oeste 0.2 886.1 -0.2 91
2019-09-20 20:00:00 14.7 7 Oeste 18 Oeste 1.6 886.9 0.8 89
2019-09-20 19:00:00 16.3 6 Sur 16 Nordeste 0.4 886.4 -0.2 82
2019-09-20 18:00:00 16.4 4 Oeste 42 Sudeste 0.8 886.3 -1 77
2019-09-20 17:00:00 22.7 11 Este 27 Sur 0 886.1 -1.5 51
2019-09-20 16:00:00 24.8 13 Sur 35 Sudoeste 0 886.6 -1.4 44
2019-09-20 15:00:00 22.8 16 Sudeste 33 Sur 0 887.3 -1.2 53
2019-09-20 14:00:00 23.3 18 Sur 32 Sur 0 887.6 -1.3 51
2019-09-20 13:00:00 22.3 14 Sur 26 Sur 0 888 -0.8 56
2019-09-20 12:00:00 20.1 12 Sudeste 30 Sudoeste 0 888.5 0.2 66
2019-09-20 11:00:00 17.5 4 Sudeste 11 Oeste 0 888.9 0.7 74
2019-09-20 10:00:00 13.9 2 Norte 9 Noroeste 0 888.8 0.8 87
2019-09-20 09:00:00 11.7 7 Noroeste 22 Oeste 0 888.3 0 91
2019-09-20 08:00:00 10.8 4 Oeste 24 Oeste 0 888.2 -0.5 92
2019-09-20 07:00:00 11.2 5 Noroeste 27 Oeste 0 888 -1.2 90
2019-09-20 06:00:00 11.2 8 Noroeste 23 Oeste 0 888.3 -1.2 90
2019-09-20 05:00:00 12.3 6 Noroeste 23 Oeste 0 888.7 -1.1 88
2019-09-20 04:00:00 12.8 6 Noroeste 23 Oeste 0 889.2 -0.9 89
2019-09-20 03:00:00 12.7 8 Noroeste 21 Oeste 0 889.5 -0.8 87
2019-09-20 02:00:00 13.1 7 Noroeste 20 Oeste 0 889.8 -0.5 83
2019-09-20 01:00:00 13.3 6 Noroeste 12 Noroeste 0 890.1 0 83
2019-09-20 00:00:00 13.5 5 Noroeste 17 Oeste 0 890.3 0.6 81